createdAt,value
2019-02-09T00:02:54.724Z,52.13
2019-02-09T00:07:56.052Z,52.10
2019-02-09T00:12:57.384Z,51.88
2019-02-09T00:17:58.746Z,51.80
2019-02-09T00:23:00.119Z,51.04
2019-02-09T00:28:01.443Z,51.71
2019-02-09T00:33:02.770Z,52.00
2019-02-09T00:38:04.865Z,50.97
2019-02-09T00:43:06.960Z,50.75
2019-02-09T00:48:08.257Z,50.82
2019-02-09T00:53:09.652Z,51.28
2019-02-09T00:58:10.976Z,51.30
2019-02-09T01:03:12.317Z,51.37
2019-02-09T01:08:13.710Z,51.04
2019-02-09T01:13:15.073Z,51.03
2019-02-09T01:18:16.455Z,50.92
2019-02-09T01:23:17.789Z,50.69
2019-02-09T01:28:19.136Z,50.01
2019-02-09T01:33:20.477Z,49.35
2019-02-09T01:38:22.583Z,49.23
2019-02-09T01:43:23.915Z,49.40
2019-02-09T01:48:25.272Z,49.73
2019-02-09T01:53:26.605Z,50.06
2019-02-09T01:58:27.978Z,50.71
2019-02-09T02:03:29.289Z,50.88
2019-02-09T02:08:30.657Z,50.41
2019-02-09T02:13:31.985Z,50.31
2019-02-09T02:18:33.385Z,49.92
2019-02-09T02:23:34.750Z,49.53
2019-02-09T02:28:36.086Z,49.20
2019-02-09T02:33:38.201Z,48.90
2019-02-09T02:38:39.535Z,48.66
2019-02-09T02:43:40.861Z,48.63
2019-02-09T02:48:42.268Z,48.01
2019-02-09T02:53:44.328Z,48.26
2019-02-09T02:58:45.704Z,47.77
2019-02-09T03:03:47.773Z,48.35
2019-02-09T03:08:49.133Z,47.95
2019-02-09T03:13:50.484Z,47.76
2019-02-09T03:18:51.868Z,48.19
2019-02-09T03:23:53.220Z,48.51
2019-02-09T03:28:54.516Z,49.29
2019-02-09T03:33:56.688Z,49.90
2019-02-09T03:38:58.037Z,50.28
2019-02-09T03:43:59.368Z,50.22
2019-02-09T03:49:00.720Z,50.32
2019-02-09T03:54:02.061Z,50.28
2019-02-09T03:59:04.154Z,49.70
2019-02-09T04:04:05.480Z,49.75
2019-02-09T04:09:06.802Z,49.49
2019-02-09T04:14:08.139Z,49.67
2019-02-09T04:19:09.531Z,49.64
2019-02-09T04:24:10.867Z,49.84
2019-02-09T04:29:12.232Z,49.41
2019-02-09T04:34:13.630Z,50.88
2019-02-09T04:39:14.985Z,49.93
2019-02-09T04:44:23.557Z,49.49
2019-02-09T04:49:24.991Z,49.19
2019-02-09T04:54:26.302Z,49.31
2019-02-09T04:59:27.660Z,48.39
2019-02-09T05:04:29.021Z,48.03
2019-02-09T05:09:30.760Z,47.38
2019-02-09T05:14:32.060Z,46.85
2019-02-09T05:19:34.166Z,46.97
2019-02-09T05:24:35.516Z,48.70
2019-02-09T05:29:36.833Z,48.15
2019-02-09T05:34:38.194Z,48.41
2019-02-09T05:39:39.543Z,47.95
2019-02-09T05:44:40.874Z,47.49
2019-02-09T05:49:42.936Z,47.26
2019-02-09T05:54:44.265Z,45.99
2019-02-09T05:59:45.647Z,45.06
2019-02-09T06:04:47.747Z,44.97
2019-02-09T06:09:49.815Z,44.27
2019-02-09T06:14:51.156Z,43.94
2019-02-09T06:19:52.470Z,44.00
2019-02-09T06:24:54.585Z,43.59
2019-02-09T06:29:55.884Z,44.07
2019-02-09T06:34:57.292Z,48.18
2019-02-09T06:39:58.617Z,51.09
2019-02-09T06:44:59.960Z,55.10
2019-02-09T06:50:01.435Z,57.41
2019-02-09T06:55:02.797Z,58.96
2019-02-09T07:00:04.925Z,58.96
2019-02-09T07:05:08.086Z,60.34
2019-02-09T07:10:13.118Z,61.10
2019-02-09T07:15:15.594Z,62.09
2019-02-09T07:20:27.360Z,61.76
2019-02-09T07:25:29.487Z,62.35
2019-02-09T07:30:30.857Z,62.49
2019-02-09T07:35:32.192Z,62.78
2019-02-09T07:40:34.504Z,61.62
2019-02-09T07:45:36.534Z,61.91
2019-02-09T07:50:37.909Z,62.34
2019-02-09T07:55:40.035Z,62.31
2019-02-09T08:00:41.339Z,61.73
2019-02-09T08:05:43.020Z,62.23
2019-02-09T08:10:44.457Z,62.64
2019-02-09T08:15:45.781Z,61.40
2019-02-09T08:20:47.127Z,61.53
2019-02-09T08:25:48.449Z,60.29
2019-02-09T08:30:49.792Z,60.56
2019-02-09T08:35:51.087Z,60.69
2019-02-09T08:40:52.444Z,60.74
2019-02-09T08:45:53.769Z,61.19
2019-02-09T08:50:58.817Z,60.09
2019-02-09T08:56:00.163Z,60.10
2019-02-09T09:01:02.227Z,60.07
2019-02-09T09:06:03.576Z,59.70
2019-02-09T09:11:05.061Z,59.22
2019-02-09T09:16:06.353Z,58.40
2019-02-09T09:21:07.684Z,58.05
2019-02-09T09:26:08.991Z,57.89
2019-02-09T09:31:10.384Z,57.74
2019-02-09T09:36:11.738Z,56.73
2019-02-09T09:41:13.103Z,56.26
2019-02-09T09:46:14.439Z,56.43
2019-02-09T09:51:16.767Z,56.34
2019-02-09T09:56:18.920Z,55.29
2019-02-09T10:01:20.257Z,55.28
2019-02-09T10:06:22.332Z,54.51
2019-02-09T10:11:24.405Z,54.01
2019-02-09T10:16:25.734Z,54.76
2019-02-09T10:21:27.079Z,54.66
2019-02-09T10:26:28.786Z,54.23
2019-02-09T10:31:30.128Z,54.17
2019-02-09T10:36:31.493Z,53.61
2019-02-09T10:41:32.901Z,53.83
2019-02-09T10:46:34.286Z,53.37
2019-02-09T10:51:36.428Z,53.30
2019-02-09T10:56:37.760Z,51.92
2019-02-09T11:01:39.144Z,51.02
2019-02-09T11:06:40.576Z,50.70
2019-02-09T11:11:42.126Z,50.12
2019-02-09T11:16:44.184Z,49.94
2019-02-09T11:21:45.501Z,50.27
2019-02-09T11:26:46.898Z,49.84
2019-02-09T11:31:48.259Z,50.07
2019-02-09T11:36:49.605Z,50.28
2019-02-09T11:41:50.913Z,50.42
2019-02-09T11:46:52.240Z,50.67
2019-02-09T11:51:53.613Z,50.77
2019-02-09T11:56:54.948Z,50.06
2019-02-09T12:01:56.254Z,50.01
2019-02-09T12:06:57.685Z,50.24
2019-02-09T12:11:59.383Z,50.47
2019-02-09T12:17:00.843Z,50.14
2019-02-09T12:22:02.335Z,49.66
2019-02-09T12:27:03.640Z,49.01
2019-02-09T12:32:05.088Z,49.40
2019-02-09T12:37:07.177Z,49.60
2019-02-09T12:42:08.558Z,48.69
2019-02-09T12:47:09.917Z,49.29
2019-02-09T12:52:11.492Z,48.76
2019-02-09T12:57:12.824Z,49.21
2019-02-09T13:02:14.260Z,48.82
2019-02-09T13:07:15.641Z,48.38
2019-02-09T13:12:16.993Z,48.67
2019-02-09T13:17:18.347Z,48.98
2019-02-09T13:22:19.751Z,48.58
2019-02-09T13:27:21.139Z,48.77
2019-02-09T13:32:34.065Z,48.62
2019-02-09T13:37:36.230Z,49.13
2019-02-09T13:42:37.677Z,48.55
2019-02-09T13:47:39.026Z,48.73
2019-02-09T13:52:40.418Z,48.03
2019-02-09T13:57:41.826Z,48.33
2019-02-09T14:02:43.205Z,48.26
2019-02-09T14:07:44.567Z,48.54
2019-02-09T14:12:45.938Z,48.35
2019-02-09T14:17:47.342Z,48.98
2019-02-09T14:22:48.914Z,49.06
2019-02-09T14:27:50.517Z,48.94
2019-02-09T14:32:51.869Z,49.20
2019-02-09T14:37:53.275Z,48.47
2019-02-09T14:42:54.680Z,48.48
2019-02-09T14:47:56.306Z,48.73
2019-02-09T14:52:57.718Z,48.25
2019-02-09T14:57:59.152Z,48.41
2019-02-09T15:03:00.989Z,48.05
2019-02-09T15:08:03.129Z,48.43
2019-02-09T15:13:04.477Z,47.39
2019-02-09T15:18:05.846Z,48.15
2019-02-09T15:23:07.306Z,47.64
2019-02-09T15:28:12.500Z,48.35
2019-02-09T15:33:10.332Z,48.81
2019-02-09T15:38:11.741Z,49.09
2019-02-09T15:43:28.429Z,49.08
2019-02-09T15:48:29.832Z,49.18
2019-02-09T15:53:31.272Z,48.93
2019-02-09T15:58:32.743Z,48.91
2019-02-09T16:03:34.125Z,49.32
2019-02-09T16:08:35.631Z,49.41
2019-02-09T16:13:37.025Z,49.80
2019-02-09T16:19:42.465Z,50.71
2019-02-09T16:24:44.554Z,50.58
2019-02-09T16:29:45.946Z,50.07
2019-02-09T16:34:47.378Z,50.76
2019-02-09T16:39:48.784Z,50.43
2019-02-09T16:44:50.153Z,50.70
2019-02-09T16:49:51.553Z,50.92
2019-02-09T16:54:53.012Z,51.58
2019-02-09T16:59:54.415Z,51.75
2019-02-09T17:04:55.882Z,52.41
2019-02-09T17:09:57.353Z,53.09
2019-02-09T17:14:58.741Z,52.82
2019-02-09T17:20:00.216Z,52.81
2019-02-09T17:25:02.310Z,52.91
2019-02-09T17:30:07.499Z,54.41
2019-02-09T17:35:09.694Z,54.87
2019-02-09T17:40:13.658Z,55.18
2019-02-09T17:45:18.524Z,55.19
2019-02-09T17:50:20.145Z,54.88
2019-02-09T17:55:21.609Z,55.04
2019-02-09T18:00:23.950Z,54.24
2019-02-09T18:05:25.365Z,55.16
2019-02-09T18:10:26.838Z,54.88
2019-02-09T18:15:28.309Z,55.57
2019-02-09T18:20:29.711Z,55.20
2019-02-09T18:25:31.497Z,54.51
2019-02-09T18:30:33.087Z,55.82
2019-02-09T18:35:35.202Z,55.82
2019-02-09T18:40:36.763Z,55.46
2019-02-09T18:45:38.322Z,55.43
2019-02-09T18:50:40.625Z,54.72
2019-02-09T18:55:42.063Z,54.73
2019-02-09T19:00:43.726Z,54.29
2019-02-09T19:05:45.566Z,54.16
2019-02-09T19:10:47.229Z,53.73
2019-02-09T19:15:48.656Z,52.80
2019-02-09T19:21:53.730Z,53.08
2019-02-09T19:26:55.129Z,52.73
2019-02-09T19:31:56.528Z,52.80
2019-02-09T19:36:58.086Z,52.40
2019-02-09T19:42:00.264Z,52.63
2019-02-09T19:47:01.681Z,52.35
2019-02-09T19:52:03.177Z,51.94
2019-02-09T19:57:04.676Z,52.49
2019-02-09T20:03:09.903Z,51.91
2019-02-09T20:08:11.585Z,51.70
2019-02-09T20:13:13.459Z,52.01
2019-02-09T20:18:15.251Z,51.40
2019-02-09T20:23:16.693Z,51.56
2019-02-09T20:28:19.183Z,51.14
2019-02-09T20:33:20.577Z,50.99
2019-02-09T20:38:22.614Z,50.80
2019-02-09T20:43:24.290Z,50.82
2019-02-09T20:48:26.492Z,51.00
2019-02-09T20:53:27.849Z,50.87
2019-02-09T20:58:29.257Z,51.10
2019-02-09T21:03:30.666Z,51.02
2019-02-09T21:08:32.070Z,50.79
2019-02-09T21:14:36.819Z,50.31
2019-02-09T21:19:38.199Z,51.22
2019-02-09T21:24:39.658Z,50.81
2019-02-09T21:29:41.343Z,51.30
2019-02-09T21:34:43.069Z,50.70
2019-02-09T21:39:45.225Z,50.71
2019-02-09T21:44:46.902Z,51.21
2019-02-09T21:49:48.356Z,50.65
2019-02-09T21:54:50.658Z,50.80
2019-02-09T22:00:55.770Z,50.86
2019-02-09T22:05:57.952Z,50.90
2019-02-09T22:10:59.425Z,50.91
2019-02-09T22:16:00.805Z,50.64
2019-02-09T22:21:02.234Z,50.74
2019-02-09T22:26:03.739Z,50.65
2019-02-09T22:31:05.286Z,50.19
2019-02-09T22:36:13.853Z,50.21
2019-02-09T22:41:15.978Z,49.86
2019-02-09T22:46:17.514Z,49.96
2019-02-09T22:51:19.659Z,49.35
2019-02-09T22:56:21.079Z,49.31
2019-02-09T23:01:33.822Z,49.46
2019-02-09T23:06:52.631Z,49.68
2019-02-09T23:12:57.014Z,49.46
2019-02-09T23:18:01.127Z,49.69
2019-02-09T23:23:04.992Z,49.74
2019-02-09T23:29:10.062Z,49.51
2019-02-09T23:34:16.738Z,49.26
2019-02-09T23:39:19.564Z,49.35
2019-02-09T23:45:24.594Z,49.52
2019-02-09T23:50:25.940Z,49.35
2019-02-09T23:55:27.279Z,49.41
